createdAt,value
2022-12-13T00:00:14.916Z,37.67
2022-12-13T00:02:41.787Z,43.63
2022-12-13T00:05:12.080Z,42.30
2022-12-13T00:07:39.467Z,30.97
2022-12-13T00:10:06.852Z,29.60
2022-12-13T00:12:33.838Z,34.23
2022-12-13T00:15:03.377Z,29.17
2022-12-13T00:17:31.951Z,31.87
2022-12-13T00:19:58.467Z,30.27
2022-12-13T00:22:25.488Z,36.37
2022-12-13T00:24:55.185Z,31.10
2022-12-13T00:27:22.007Z,28.03
2022-12-13T00:29:48.573Z,27.17
2022-12-13T00:32:15.179Z,28.90
2022-12-13T00:34:45.020Z,27.53
2022-12-13T00:37:11.563Z,27.87
2022-12-13T00:39:38.779Z,29.73
2022-12-13T00:42:05.922Z,28.53
2022-12-13T00:44:32.588Z,25.53
2022-12-13T00:46:59.079Z,25.47
2022-12-13T00:49:27.902Z,23.73
2022-12-13T00:51:57.134Z,31.13
2022-12-13T00:54:23.710Z,27.53
2022-12-13T00:56:51.546Z,25.30
2022-12-13T00:59:18.168Z,24.63
2022-12-13T01:01:45.181Z,27.90
2022-12-13T01:04:14.921Z,27.10
2022-12-13T01:06:47.001Z,31.80
2022-12-13T01:09:19.927Z,28.13
2022-12-13T01:11:47.653Z,21.03
2022-12-13T01:14:17.542Z,23.27
2022-12-13T01:16:44.213Z,22.97
2022-12-13T01:19:10.761Z,28.10
2022-12-13T01:21:37.463Z,28.30
2022-12-13T01:24:06.188Z,33.63
2022-12-13T01:26:35.280Z,29.20
2022-12-13T01:29:02.050Z,25.90
2022-12-13T01:31:31.476Z,29.90
2022-12-13T01:33:58.166Z,28.37
2022-12-13T01:36:29.584Z,27.50
2022-12-13T01:38:58.420Z,28.40
2022-12-13T01:41:29.099Z,27.70
2022-12-13T01:44:03.251Z,28.47
2022-12-13T01:46:32.335Z,28.77
2022-12-13T01:49:02.402Z,31.83
2022-12-13T01:51:52.368Z,30.27
2022-12-13T01:54:33.655Z,33.50
2022-12-13T01:57:04.909Z,24.43
2022-12-13T01:59:32.496Z,29.03
2022-12-13T02:02:00.948Z,35.77
2022-12-13T02:04:43.617Z,27.60
2022-12-13T02:07:23.116Z,33.00
2022-12-13T02:09:56.502Z,28.53
2022-12-13T02:12:29.854Z,33.20
2022-12-13T02:15:00.483Z,28.07
2022-12-13T02:18:02.622Z,36.43
2022-12-13T02:20:48.803Z,34.03
2022-12-13T02:23:37.916Z,34.93
2022-12-13T02:26:16.283Z,31.70
2022-12-13T02:28:55.070Z,30.83
2022-12-13T02:31:26.228Z,31.27
2022-12-13T02:34:07.737Z,32.17
2022-12-13T02:36:57.529Z,34.30
2022-12-13T02:39:33.315Z,35.10
2022-12-13T02:42:21.912Z,35.20
2022-12-13T02:44:55.361Z,35.93
2022-12-13T02:47:24.432Z,27.17
2022-12-13T02:50:03.896Z,27.53
2022-12-13T02:52:34.657Z,29.17
2022-12-13T02:55:07.420Z,35.13
2022-12-13T02:57:42.666Z,25.53
2022-12-13T03:00:46.929Z,29.70
2022-12-13T03:03:37.585Z,33.37
2022-12-13T03:06:33.453Z,27.57
2022-12-13T03:09:26.202Z,33.10
2022-12-13T03:12:26.647Z,27.23
2022-12-13T03:15:06.033Z,40.60
2022-12-13T03:17:42.648Z,30.70
2022-12-13T03:20:12.670Z,30.77
2022-12-13T03:22:49.147Z,30.43
2022-12-13T03:25:30.834Z,33.13
2022-12-13T03:28:01.807Z,29.47
2022-12-13T03:30:32.969Z,36.20
2022-12-13T03:33:00.008Z,43.43
2022-12-13T03:35:34.359Z,29.37
2022-12-13T03:38:12.116Z,29.27
2022-12-13T03:40:38.985Z,34.47
2022-12-13T03:43:08.238Z,34.63
2022-12-13T03:45:34.750Z,38.60
2022-12-13T03:48:03.675Z,32.10
2022-12-13T03:50:30.198Z,33.47
2022-12-13T03:53:01.128Z,29.57
2022-12-13T03:55:28.251Z,34.03
2022-12-13T03:57:54.733Z,29.23
2022-12-13T04:00:21.516Z,29.33
2022-12-13T04:02:50.522Z,29.20
2022-12-13T04:05:19.408Z,30.33
2022-12-13T04:07:48.379Z,31.30
2022-12-13T04:10:25.929Z,33.00
2022-12-13T04:13:12.855Z,31.10
2022-12-13T04:15:39.942Z,28.27
2022-12-13T04:18:06.730Z,27.47
2022-12-13T04:20:33.289Z,30.17
2022-12-13T04:22:59.988Z,29.83
2022-12-13T04:25:26.864Z,28.57
2022-12-13T04:27:53.406Z,30.53
2022-12-13T04:30:19.985Z,37.83
2022-12-13T04:32:46.513Z,31.60
2022-12-13T04:35:13.221Z,32.70
2022-12-13T04:37:43.469Z,32.80
2022-12-13T04:40:10.939Z,33.67
2022-12-13T04:42:37.529Z,35.03
2022-12-13T04:45:04.511Z,33.50
2022-12-13T04:47:31.053Z,29.50
2022-12-13T04:49:57.737Z,36.77
2022-12-13T04:52:24.385Z,33.63
2022-12-13T04:54:55.953Z,30.50
2022-12-13T04:57:25.278Z,28.37
2022-12-13T04:59:51.953Z,28.33
2022-12-13T05:02:23.341Z,30.63
2022-12-13T05:04:53.762Z,35.63
2022-12-13T05:07:23.374Z,31.80
2022-12-13T05:09:52.381Z,37.73
2022-12-13T05:12:22.341Z,28.40
2022-12-13T05:14:50.945Z,29.67
2022-12-13T05:17:20.893Z,33.43
2022-12-13T05:19:47.450Z,28.67
2022-12-13T05:22:20.455Z,32.80
2022-12-13T05:24:47.984Z,34.00
2022-12-13T05:27:26.323Z,33.63
2022-12-13T05:30:02.923Z,29.80
2022-12-13T05:32:43.919Z,28.47
2022-12-13T05:35:22.436Z,32.80
2022-12-13T05:37:56.734Z,30.20
2022-12-13T05:40:24.379Z,23.90
2022-12-13T05:43:01.032Z,37.67
2022-12-13T05:45:29.504Z,31.67
2022-12-13T05:47:56.050Z,34.30
2022-12-13T05:50:22.571Z,35.00
2022-12-13T05:52:49.083Z,33.03
2022-12-13T05:55:16.004Z,36.17
2022-12-13T05:57:50.686Z,32.10
2022-12-13T06:00:28.636Z,34.17
2022-12-13T06:03:01.310Z,32.80
2022-12-13T06:05:30.634Z,32.17
2022-12-13T06:07:58.396Z,33.53
2022-12-13T06:10:34.013Z,33.37
2022-12-13T06:13:04.376Z,30.37
2022-12-13T06:15:48.729Z,32.77
2022-12-13T06:18:17.577Z,33.33
2022-12-13T06:20:44.488Z,36.40
2022-12-13T06:23:11.011Z,30.97
2022-12-13T06:25:37.740Z,31.33
2022-12-13T06:28:06.737Z,36.73
2022-12-13T06:30:35.508Z,40.70
2022-12-13T06:33:10.925Z,36.87
2022-12-13T06:35:41.500Z,33.40
2022-12-13T06:38:12.039Z,43.13
2022-12-13T06:40:42.466Z,38.50
2022-12-13T06:43:09.566Z,34.20
2022-12-13T06:45:40.440Z,29.60
2022-12-13T06:48:09.551Z,32.80
2022-12-13T06:50:36.185Z,38.00
2022-12-13T06:53:02.722Z,32.87
2022-12-13T06:55:31.362Z,33.20
2022-12-13T06:57:58.870Z,32.73
2022-12-13T07:00:35.720Z,43.40
2022-12-13T07:03:04.884Z,36.67
2022-12-13T07:05:31.441Z,40.40
2022-12-13T07:07:57.975Z,33.83
2022-12-13T07:10:24.547Z,40.50
2022-12-13T07:12:53.203Z,47.60
2022-12-13T07:15:19.768Z,45.83
2022-12-13T07:17:50.907Z,38.77
2022-12-13T07:20:19.301Z,39.43
2022-12-13T07:22:49.203Z,36.27
2022-12-13T07:25:27.898Z,33.00
2022-12-13T07:28:06.880Z,36.83
2022-12-13T07:30:40.744Z,34.90
2022-12-13T07:33:08.176Z,34.63
2022-12-13T07:35:36.994Z,35.77
2022-12-13T07:38:04.971Z,41.83
2022-12-13T07:40:35.359Z,35.33
2022-12-13T07:43:02.007Z,34.70
2022-12-13T07:45:29.089Z,33.00
2022-12-13T07:47:55.624Z,33.40
2022-12-13T07:50:24.567Z,33.80
2022-12-13T07:52:59.458Z,37.40
2022-12-13T07:55:33.625Z,36.67
2022-12-13T07:58:05.762Z,37.50
2022-12-13T08:00:33.248Z,37.50
2022-12-13T08:03:03.138Z,33.83
2022-12-13T08:05:38.843Z,29.50
2022-12-13T08:08:08.191Z,36.60
2022-12-13T08:10:35.306Z,32.60
2022-12-13T08:13:04.784Z,33.17
2022-12-13T08:15:31.657Z,40.37
2022-12-13T08:18:01.347Z,34.00
2022-12-13T08:20:28.133Z,39.70
2022-12-13T08:23:01.957Z,38.07
2022-12-13T08:25:30.518Z,36.10
2022-12-13T08:28:02.113Z,40.73
2022-12-13T08:30:30.049Z,37.73
2022-12-13T08:32:56.615Z,46.53
2022-12-13T08:35:23.203Z,42.23
2022-12-13T08:37:51.959Z,44.17
2022-12-13T08:40:18.471Z,49.73
2022-12-13T08:42:45.092Z,42.27
2022-12-13T08:45:12.451Z,41.30
2022-12-13T08:47:42.148Z,46.53
2022-12-13T08:50:09.088Z,46.10
2022-12-13T08:52:40.775Z,42.50
2022-12-13T08:55:13.888Z,43.00
2022-12-13T08:57:42.467Z,47.40
2022-12-13T09:00:14.892Z,54.90
2022-12-13T09:02:41.561Z,44.33
2022-12-13T09:05:12.959Z,50.70
2022-12-13T09:07:43.082Z,48.70
2022-12-13T09:10:25.778Z,41.47
2022-12-13T09:13:02.420Z,46.97
2022-12-13T09:15:34.278Z,47.23
2022-12-13T09:18:05.115Z,39.60
2022-12-13T09:20:40.848Z,46.93
2022-12-13T09:23:13.842Z,46.27
2022-12-13T09:25:54.973Z,41.90
2022-12-13T09:28:21.648Z,49.00
2022-12-13T09:30:48.180Z,39.63
2022-12-13T09:33:29.451Z,47.10
2022-12-13T09:35:57.516Z,36.83
2022-12-13T09:38:24.132Z,45.73
2022-12-13T09:40:58.501Z,45.43
2022-12-13T09:43:33.866Z,43.70
2022-12-13T09:46:44.202Z,45.13
2022-12-13T09:49:51.895Z,37.10
2022-12-13T09:52:22.587Z,43.87
2022-12-13T09:54:55.793Z,43.60
2022-12-13T09:57:34.221Z,50.37
2022-12-13T10:00:12.612Z,42.03
2022-12-13T10:03:00.196Z,46.70
2022-12-13T10:05:39.390Z,38.57
2022-12-13T10:08:13.948Z,41.90
2022-12-13T10:10:40.818Z,45.73
2022-12-13T10:13:20.356Z,33.53
2022-12-13T10:16:06.723Z,44.20
2022-12-13T10:18:38.151Z,48.67
2022-12-13T10:21:40.076Z,45.83
2022-12-13T10:24:36.497Z,45.30
2022-12-13T10:27:19.106Z,35.23
2022-12-13T10:30:14.016Z,42.90
2022-12-13T10:33:00.367Z,42.50
2022-12-13T10:35:36.394Z,37.90
2022-12-13T10:38:32.260Z,46.10
2022-12-13T10:41:01.217Z,44.37
2022-12-13T10:43:30.262Z,38.63
2022-12-13T10:45:57.546Z,40.70
2022-12-13T10:48:39.113Z,38.53
2022-12-13T10:51:14.223Z,37.97
2022-12-13T10:53:50.409Z,40.80
2022-12-13T10:56:23.658Z,41.80
2022-12-13T10:59:15.126Z,45.60
2022-12-13T11:01:46.255Z,41.03
2022-12-13T11:04:33.279Z,35.17
2022-12-13T11:07:09.558Z,35.80
2022-12-13T11:09:38.372Z,37.27
2022-12-13T11:12:19.829Z,39.33
2022-12-13T11:15:00.735Z,38.90
2022-12-13T11:17:30.556Z,42.87
2022-12-13T11:20:36.387Z,37.30
2022-12-13T11:23:27.796Z,44.33
2022-12-13T11:25:58.016Z,32.80
2022-12-13T11:28:42.491Z,44.33
2022-12-13T11:31:55.018Z,47.97
2022-12-13T11:34:48.357Z,61.77
2022-12-13T11:37:40.464Z,54.50
2022-12-13T11:40:28.915Z,41.57
2022-12-13T11:43:14.461Z,35.10
2022-12-13T11:45:46.616Z,44.57
2022-12-13T11:48:22.029Z,36.00
2022-12-13T11:50:55.200Z,39.27
2022-12-13T11:53:28.309Z,43.10
2022-12-13T11:56:00.498Z,43.03
2022-12-13T12:01:46.390Z,35.97
2022-12-13T12:04:21.974Z,38.10
2022-12-13T12:07:24.583Z,38.10
2022-12-13T12:10:02.153Z,37.80
2022-12-13T12:12:34.817Z,34.87
2022-12-13T12:15:26.658Z,36.33
2022-12-13T12:17:55.568Z,39.80
2022-12-13T12:20:42.460Z,40.97
2022-12-13T12:23:32.933Z,34.20
2022-12-13T12:26:15.831Z,45.33
2022-12-13T12:28:45.399Z,37.07
2022-12-13T12:31:50.431Z,28.30
2022-12-13T12:34:30.015Z,31.90
2022-12-13T12:37:11.851Z,34.80
2022-12-13T12:39:59.768Z,32.83
2022-12-13T12:43:14.420Z,41.83
2022-12-13T12:45:55.730Z,32.83
2022-12-13T12:48:56.612Z,36.00
2022-12-13T12:51:45.862Z,29.83
2022-12-13T12:54:32.654Z,31.17
2022-12-13T12:57:20.331Z,36.20
2022-12-13T13:00:13.176Z,31.87
2022-12-13T13:02:49.229Z,34.10
2022-12-13T13:05:27.959Z,29.20
2022-12-13T13:08:15.844Z,31.83
2022-12-13T13:10:50.204Z,34.37
2022-12-13T13:13:46.525Z,30.73
2022-12-13T13:16:28.880Z,33.87
2022-12-13T13:18:59.810Z,28.80
2022-12-13T13:21:27.695Z,35.50
2022-12-13T13:24:14.620Z,33.10
2022-12-13T13:26:54.393Z,32.07
2022-12-13T13:29:27.282Z,35.67
2022-12-13T13:32:29.422Z,34.13
2022-12-13T13:35:28.667Z,35.33
2022-12-13T13:37:55.534Z,34.03
2022-12-13T13:40:31.034Z,33.77
2022-12-13T13:43:12.786Z,29.73
2022-12-13T13:45:51.711Z,36.27
2022-12-13T13:48:37.097Z,29.87
2022-12-13T13:51:22.445Z,32.13
2022-12-13T13:54:16.989Z,29.83
2022-12-13T13:57:08.246Z,34.37
2022-12-13T13:59:49.155Z,31.30
2022-12-13T14:02:24.725Z,29.93
2022-12-13T14:05:16.044Z,32.90
2022-12-13T14:08:02.776Z,33.67
2022-12-13T14:11:00.608Z,29.57
2022-12-13T14:13:45.994Z,32.83
2022-12-13T14:16:20.317Z,37.40
2022-12-13T14:19:15.634Z,37.80
2022-12-13T14:22:11.726Z,33.80
2022-12-13T14:24:44.463Z,32.97
2022-12-13T14:27:25.998Z,36.17
2022-12-13T14:29:58.408Z,36.50
2022-12-13T14:32:31.238Z,39.60
2022-12-13T14:34:59.559Z,42.30
2022-12-13T14:37:56.810Z,34.37
2022-12-13T14:40:26.534Z,34.93
2022-12-13T14:42:56.397Z,32.93
2022-12-13T14:45:29.443Z,35.43
2022-12-13T14:48:01.620Z,32.67
2022-12-13T14:50:32.325Z,34.07
2022-12-13T14:53:00.516Z,39.73
2022-12-13T14:55:38.523Z,38.50
2022-12-13T14:58:19.039Z,37.57
2022-12-13T15:00:46.114Z,39.93
2022-12-13T15:03:23.719Z,36.37
2022-12-13T15:05:55.077Z,33.93
2022-12-13T15:08:22.258Z,34.77
2022-12-13T15:10:52.341Z,33.70
2022-12-13T15:13:44.880Z,33.67
2022-12-13T15:16:19.656Z,33.17
2022-12-13T15:18:50.510Z,39.77
2022-12-13T15:21:25.617Z,37.77
2022-12-13T15:23:53.213Z,35.07
2022-12-13T15:26:28.566Z,36.13
2022-12-13T15:29:00.950Z,33.20
2022-12-13T15:31:28.250Z,35.73
2022-12-13T15:34:01.384Z,37.60
2022-12-13T15:36:29.535Z,33.27
2022-12-13T15:38:55.982Z,33.30
2022-12-13T15:41:29.602Z,38.40
2022-12-13T15:44:17.759Z,35.80
2022-12-13T15:46:46.103Z,22.50
2022-12-13T15:49:26.049Z,36.27
2022-12-13T15:52:26.570Z,38.37
2022-12-13T15:55:00.967Z,37.13
2022-12-13T15:57:30.813Z,37.17
2022-12-13T16:00:07.852Z,37.60
2022-12-13T16:02:35.505Z,39.33
2022-12-13T16:05:07.911Z,38.27
2022-12-13T16:07:38.244Z,37.70
2022-12-13T16:10:06.816Z,38.73
2022-12-13T16:12:40.158Z,40.57
2022-12-13T16:15:29.620Z,38.37
2022-12-13T16:18:21.033Z,37.47
2022-12-13T16:20:54.022Z,36.60
2022-12-13T16:23:26.714Z,36.17
2022-12-13T16:25:54.357Z,35.13
2022-12-13T16:28:26.161Z,37.23
2022-12-13T16:30:53.076Z,34.80
2022-12-13T16:33:27.174Z,38.90
2022-12-13T16:35:55.543Z,37.33
2022-12-13T16:38:25.858Z,42.20
2022-12-13T16:40:55.405Z,33.63
2022-12-13T16:43:33.381Z,38.73
2022-12-13T16:47:12.188Z,38.33
2022-12-13T16:48:50.942Z,40.23
2022-12-13T16:51:18.221Z,32.63
2022-12-13T16:53:44.920Z,43.97
2022-12-13T16:56:14.842Z,39.80
2022-12-13T16:58:46.068Z,40.17
2022-12-13T17:01:20.190Z,37.83
2022-12-13T17:03:47.888Z,39.57
2022-12-13T17:06:15.979Z,46.60
2022-12-13T17:08:45.062Z,32.87
2022-12-13T17:11:17.534Z,40.20
2022-12-13T17:13:47.041Z,41.33
2022-12-13T17:16:14.190Z,34.17
2022-12-13T17:18:40.962Z,38.13
2022-12-13T17:21:08.786Z,38.03
2022-12-13T17:23:37.758Z,39.17
2022-12-13T17:26:06.369Z,39.27
2022-12-13T17:28:33.139Z,38.53
2022-12-13T17:31:14.665Z,36.43
2022-12-13T17:33:42.314Z,37.40
2022-12-13T17:36:13.607Z,49.00
2022-12-13T17:38:45.725Z,40.37
2022-12-13T17:41:15.979Z,33.23
2022-12-13T17:43:45.547Z,38.37
2022-12-13T17:46:14.716Z,39.43
2022-12-13T17:48:42.577Z,36.67
2022-12-13T17:51:11.430Z,38.43
2022-12-13T17:53:42.730Z,36.40
2022-12-13T17:56:17.769Z,36.43
2022-12-13T17:58:44.351Z,35.37
2022-12-13T18:01:21.821Z,42.07
2022-12-13T18:03:51.448Z,38.37
2022-12-13T18:06:18.464Z,38.53
2022-12-13T18:08:45.599Z,43.00
2022-12-13T18:14:05.303Z,44.83
2022-12-13T18:16:37.602Z,36.87
2022-12-13T18:19:07.631Z,34.63
2022-12-13T18:21:37.506Z,36.87
2022-12-13T18:24:08.078Z,31.40
2022-12-13T18:26:37.137Z,44.90
2022-12-13T18:29:04.664Z,36.67
2022-12-13T18:31:34.364Z,38.90
2022-12-13T18:34:01.466Z,39.37
2022-12-13T18:36:28.262Z,37.07
2022-12-13T18:38:54.917Z,39.20
2022-12-13T18:41:24.337Z,36.63
2022-12-13T18:44:02.091Z,40.07
2022-12-13T18:46:30.385Z,37.40
2022-12-13T18:48:57.933Z,39.50
2022-12-13T18:51:27.285Z,35.60
2022-12-13T18:53:56.630Z,41.47
2022-12-13T18:56:26.012Z,36.87
2022-12-13T18:58:52.760Z,41.33
2022-12-13T19:01:20.607Z,42.80
2022-12-13T19:03:48.740Z,35.83
2022-12-13T19:06:21.648Z,37.77
2022-12-13T19:08:51.455Z,41.00
2022-12-13T19:11:19.297Z,41.60
2022-12-13T19:13:46.639Z,35.73
2022-12-13T19:16:15.430Z,33.77
2022-12-13T19:18:42.476Z,41.13
2022-12-13T19:21:12.431Z,37.23
2022-12-13T19:23:40.755Z,47.87
2022-12-13T19:26:13.299Z,34.83
2022-12-13T19:28:41.599Z,30.43
2022-12-13T19:31:16.967Z,39.13
2022-12-13T19:33:43.909Z,43.63
2022-12-13T19:36:13.877Z,31.10
2022-12-13T19:38:42.010Z,37.40
2022-12-13T19:41:10.584Z,37.90
2022-12-13T19:43:37.205Z,40.83
2022-12-13T19:46:04.396Z,37.40
2022-12-13T19:48:31.492Z,40.70
2022-12-13T19:51:00.195Z,35.90
2022-12-13T19:53:30.339Z,39.47
2022-12-13T19:55:59.321Z,41.37
2022-12-13T19:58:26.757Z,41.63
2022-12-13T20:00:53.723Z,35.33
2022-12-13T20:03:20.392Z,31.87
2022-12-13T20:05:56.810Z,39.30
2022-12-13T20:08:23.486Z,34.87
2022-12-13T20:10:57.207Z,39.07
2022-12-13T20:13:26.520Z,36.47
2022-12-13T20:15:54.040Z,36.97
2022-12-13T20:18:21.583Z,40.03
2022-12-13T20:21:10.539Z,33.97
2022-12-13T20:23:37.290Z,34.07
2022-12-13T20:26:07.292Z,39.60
2022-12-13T20:28:33.900Z,45.23
2022-12-13T20:31:20.675Z,39.07
2022-12-13T20:33:48.052Z,37.63
2022-12-13T20:36:24.827Z,35.37
2022-12-13T20:38:58.425Z,38.60
2022-12-13T20:41:27.546Z,35.30
2022-12-13T20:43:55.791Z,41.50
2022-12-13T20:46:23.783Z,37.90
2022-12-13T20:48:51.311Z,41.00
2022-12-13T20:51:20.788Z,35.83
2022-12-13T20:53:49.264Z,36.80
2022-12-13T20:56:18.708Z,32.03
2022-12-13T20:58:45.390Z,33.03
2022-12-13T21:01:17.935Z,35.93
2022-12-13T21:03:47.468Z,32.23
2022-12-13T21:06:14.223Z,31.77
2022-12-13T21:08:53.905Z,34.27
2022-12-13T21:11:30.322Z,35.03
2022-12-13T21:14:11.213Z,33.03
2022-12-13T21:16:44.233Z,38.33
2022-12-13T21:19:16.160Z,29.70
2022-12-13T21:21:43.184Z,29.63
2022-12-13T21:24:13.511Z,32.87
2022-12-13T21:26:40.040Z,26.03
2022-12-13T21:29:10.997Z,23.83
2022-12-13T21:31:39.319Z,35.67
2022-12-13T21:34:06.606Z,35.83
2022-12-13T21:36:42.552Z,29.87
2022-12-13T21:39:17.781Z,30.33
2022-12-13T21:41:44.803Z,26.20
2022-12-13T21:44:12.860Z,27.33
2022-12-13T21:49:25.997Z,30.53
2022-12-13T21:51:52.544Z,27.27
2022-12-13T21:54:19.286Z,28.77
2022-12-13T21:57:04.215Z,26.63
2022-12-13T21:59:31.827Z,24.47
2022-12-13T22:02:17.799Z,27.87
2022-12-13T22:04:52.746Z,21.70
2022-12-13T22:07:23.647Z,29.23
2022-12-13T22:09:51.337Z,23.10
2022-12-13T22:12:26.107Z,25.83
2022-12-13T22:14:56.007Z,21.10
2022-12-13T22:17:31.354Z,24.63
2022-12-13T22:20:02.354Z,22.83
2022-12-13T22:22:31.521Z,25.23
2022-12-13T22:25:00.488Z,26.07
2022-12-13T22:27:29.511Z,24.27
2022-12-13T22:29:57.877Z,22.33
2022-12-13T22:32:27.115Z,24.43
2022-12-13T22:34:54.295Z,27.87
2022-12-13T22:37:21.333Z,22.60
2022-12-13T22:39:47.882Z,24.77
2022-12-13T22:42:14.631Z,24.00
2022-12-13T22:44:43.662Z,23.10
2022-12-13T22:47:10.394Z,22.30
2022-12-13T22:49:36.991Z,21.27
2022-12-13T22:52:03.654Z,23.20
2022-12-13T22:54:30.148Z,29.23
2022-12-13T22:56:58.926Z,20.83
2022-12-13T22:59:28.697Z,23.33
2022-12-13T23:02:02.135Z,23.13
2022-12-13T23:04:29.988Z,22.23
2022-12-13T23:06:56.526Z,21.67
2022-12-13T23:09:23.201Z,23.13
2022-12-13T23:12:08.295Z,25.57
2022-12-13T23:14:34.892Z,24.13
2022-12-13T23:17:02.392Z,24.63
2022-12-13T23:19:49.843Z,29.57
2022-12-13T23:22:16.428Z,24.50
2022-12-13T23:24:45.258Z,20.97
2022-12-13T23:27:11.808Z,24.40
2022-12-13T23:29:38.463Z,23.37
2022-12-13T23:32:05.197Z,21.70
2022-12-13T23:34:31.732Z,19.33
2022-12-13T23:36:58.512Z,22.87
2022-12-13T23:39:25.256Z,21.20
2022-12-13T23:41:52.061Z,19.37
2022-12-13T23:44:18.555Z,27.80
2022-12-13T23:46:48.896Z,19.47
2022-12-13T23:49:15.667Z,21.70
2022-12-13T23:51:42.287Z,19.50
2022-12-13T23:54:09.880Z,20.73
2022-12-13T23:56:36.457Z,22.83
2022-12-13T23:59:05.511Z,21.80
